createdAt,value
2023-02-12T00:01:24.708Z,36.57
2023-02-12T00:03:51.866Z,35.62
2023-02-12T00:06:18.945Z,37.16
2023-02-12T00:08:50.854Z,37.18
2023-02-12T00:11:19.411Z,36.26
2023-02-12T00:13:46.678Z,37.10
2023-02-12T00:16:16.049Z,36.96
2023-02-12T00:18:42.880Z,38.13
2023-02-12T00:21:09.664Z,36.87
2023-02-12T00:23:36.934Z,37.96
2023-02-12T00:26:10.615Z,37.89
2023-02-12T00:28:37.780Z,36.57
2023-02-12T00:31:16.020Z,37.64
2023-02-12T00:33:48.279Z,37.74
2023-02-12T00:36:16.878Z,38.31
2023-02-12T00:38:44.591Z,38.42
2023-02-12T00:41:11.422Z,38.05
2023-02-12T00:43:38.556Z,38.42
2023-02-12T00:46:10.975Z,37.96
2023-02-12T00:48:38.052Z,38.17
2023-02-12T00:51:05.255Z,38.61
2023-02-12T00:53:32.621Z,37.23
2023-02-12T00:55:59.810Z,37.05
2023-02-12T00:58:26.521Z,36.69
2023-02-12T01:00:53.525Z,35.93
2023-02-12T01:03:20.885Z,36.29
2023-02-12T01:05:48.817Z,36.21
2023-02-12T01:08:16.765Z,35.81
2023-02-12T01:10:43.950Z,36.79
2023-02-12T01:13:17.040Z,37.13
2023-02-12T01:15:44.094Z,37.18
2023-02-12T01:18:11.193Z,36.76
2023-02-12T01:20:40.113Z,37.36
2023-02-12T01:23:07.245Z,36.79
2023-02-12T01:25:34.361Z,36.55
2023-02-12T01:28:01.502Z,37.17
2023-02-12T01:30:34.505Z,37.38
2023-02-12T01:33:01.573Z,36.80
2023-02-12T01:35:28.533Z,36.07
2023-02-12T01:37:58.115Z,37.65
2023-02-12T01:40:30.613Z,37.79
2023-02-12T01:43:01.059Z,38.29
2023-02-12T01:45:36.895Z,37.24
2023-02-12T01:48:04.037Z,37.58
2023-02-12T01:50:31.335Z,37.48
2023-02-12T01:53:01.019Z,38.01
2023-02-12T01:55:31.594Z,38.20
2023-02-12T01:57:58.535Z,38.41
2023-02-12T02:00:30.894Z,38.55
2023-02-12T02:02:58.770Z,38.51
2023-02-12T02:05:34.150Z,39.11
2023-02-12T02:08:10.393Z,39.42
2023-02-12T02:10:37.499Z,39.67
2023-02-12T02:13:04.579Z,40.30
2023-02-12T02:15:36.439Z,40.51
2023-02-12T02:18:07.854Z,40.40
2023-02-12T02:20:43.978Z,40.50
2023-02-12T02:23:37.851Z,40.98
2023-02-12T02:26:37.721Z,43.65
2023-02-12T02:29:30.117Z,41.59
2023-02-12T02:32:20.877Z,40.63
2023-02-12T02:34:58.616Z,39.37
2023-02-12T02:37:49.251Z,40.01
2023-02-12T02:40:27.359Z,39.53
2023-02-12T02:43:15.946Z,39.43
2023-02-12T02:45:50.014Z,37.78
2023-02-12T02:48:24.654Z,38.76
2023-02-12T02:50:55.785Z,38.56
2023-02-12T02:53:45.990Z,38.95
2023-02-12T02:56:20.425Z,39.71
2023-02-12T02:58:59.385Z,40.15
2023-02-12T03:01:38.391Z,39.29
2023-02-12T03:04:10.185Z,39.63
2023-02-12T03:07:10.514Z,39.82
2023-02-12T03:09:40.739Z,39.75
2023-02-12T03:12:14.400Z,39.24
2023-02-12T03:14:44.896Z,39.87
2023-02-12T03:17:26.487Z,39.71
2023-02-12T03:19:59.007Z,41.23
2023-02-12T03:22:29.072Z,40.72
2023-02-12T03:25:18.594Z,41.82
2023-02-12T03:28:09.892Z,41.25
2023-02-12T03:31:11.212Z,42.65
2023-02-12T03:34:09.754Z,42.76
2023-02-12T03:36:55.634Z,46.64
2023-02-12T03:39:37.158Z,43.55
2023-02-12T03:42:42.294Z,42.45
2023-02-12T03:45:55.849Z,41.69
2023-02-12T03:48:23.813Z,42.27
2023-02-12T03:51:10.185Z,42.58
2023-02-12T03:53:42.871Z,43.48
2023-02-12T03:56:47.511Z,43.52
2023-02-12T03:59:14.997Z,43.33
2023-02-12T04:01:46.862Z,42.32
2023-02-12T04:04:14.634Z,42.42
2023-02-12T04:06:41.585Z,42.58
2023-02-12T04:09:09.666Z,43.08
2023-02-12T04:12:15.837Z,42.95
2023-02-12T04:15:33.720Z,42.79
2023-02-12T04:18:10.362Z,42.65
2023-02-12T04:21:31.545Z,43.34
2023-02-12T04:24:30.122Z,44.20
2023-02-12T04:27:31.008Z,44.53
2023-02-12T04:30:15.799Z,44.52
2023-02-12T04:32:48.778Z,45.20
2023-02-12T04:35:48.818Z,44.66
2023-02-12T04:38:40.548Z,44.56
2023-02-12T04:41:07.771Z,45.96
2023-02-12T04:43:37.538Z,44.81
2023-02-12T04:46:05.918Z,45.50
2023-02-12T04:48:33.033Z,45.71
2023-02-12T04:51:00.070Z,45.61
2023-02-12T04:53:27.555Z,45.53
2023-02-12T04:55:54.893Z,45.31
2023-02-12T04:58:22.197Z,46.17
2023-02-12T05:00:53.976Z,46.06
2023-02-12T05:03:23.550Z,46.64
2023-02-12T05:05:53.390Z,46.23
2023-02-12T05:08:20.494Z,46.64
2023-02-12T05:10:47.246Z,46.83
2023-02-12T05:13:16.723Z,47.32
2023-02-12T05:15:43.585Z,46.79
2023-02-12T05:18:11.158Z,46.83
2023-02-12T05:20:39.076Z,46.22
2023-02-12T05:23:06.757Z,46.83
2023-02-12T05:25:33.810Z,47.41
2023-02-12T05:28:00.605Z,47.82
2023-02-12T05:30:28.959Z,49.12
2023-02-12T05:32:56.250Z,49.59
2023-02-12T05:35:25.763Z,49.02
2023-02-12T05:37:52.874Z,49.42
2023-02-12T05:40:20.118Z,49.88
2023-02-12T05:43:11.383Z,50.41
2023-02-12T05:45:38.499Z,52.72
2023-02-12T05:48:10.543Z,52.06
2023-02-12T05:50:38.502Z,51.65
2023-02-12T05:53:05.554Z,53.33
2023-02-12T05:55:32.587Z,52.85
2023-02-12T05:58:02.160Z,52.45
2023-02-12T06:00:32.051Z,52.29
2023-02-12T06:02:59.230Z,53.08
2023-02-12T06:05:26.407Z,52.36
2023-02-12T06:07:53.770Z,52.18
2023-02-12T06:10:21.246Z,50.59
2023-02-12T06:12:53.670Z,51.92
2023-02-12T06:15:25.595Z,51.71
2023-02-12T06:17:52.557Z,51.11
2023-02-12T06:20:19.464Z,50.93
2023-02-12T06:22:46.537Z,52.80
2023-02-12T06:25:13.658Z,52.55
2023-02-12T06:27:40.686Z,52.54
2023-02-12T06:30:09.442Z,52.56
2023-02-12T06:32:36.841Z,52.56
2023-02-12T06:35:04.112Z,52.36
2023-02-12T06:37:32.407Z,52.94
2023-02-12T06:39:59.462Z,53.18
2023-02-12T06:42:29.211Z,53.90
2023-02-12T06:44:55.980Z,53.27
2023-02-12T06:47:23.112Z,53.83
2023-02-12T06:49:50.123Z,53.69
2023-02-12T06:52:17.175Z,56.97
2023-02-12T06:54:44.260Z,53.69
2023-02-12T06:57:15.916Z,52.64
2023-02-12T06:59:44.135Z,51.94
2023-02-12T07:02:11.883Z,52.49
2023-02-12T07:04:40.690Z,51.73
2023-02-12T07:07:07.697Z,51.68
2023-02-12T07:09:34.808Z,50.25
2023-02-12T07:12:01.935Z,50.05
2023-02-12T07:14:28.631Z,49.39
2023-02-12T07:16:57.292Z,50.14
2023-02-12T07:19:24.814Z,50.38
2023-02-12T07:21:54.303Z,49.72
2023-02-12T07:24:22.047Z,50.57
2023-02-12T07:26:52.446Z,50.38
2023-02-12T07:29:19.134Z,50.66
2023-02-12T07:31:47.267Z,50.54
2023-02-12T07:34:14.084Z,51.64
2023-02-12T07:36:40.821Z,53.08
2023-02-12T07:39:07.917Z,51.08
2023-02-12T07:41:35.559Z,52.17
2023-02-12T07:44:07.059Z,52.98
2023-02-12T07:46:35.811Z,52.22
2023-02-12T07:49:08.167Z,52.58
2023-02-12T07:51:34.916Z,52.61
2023-02-12T07:54:02.607Z,52.50
2023-02-12T07:56:30.861Z,49.31
2023-02-12T07:58:58.657Z,51.20
2023-02-12T08:01:28.540Z,52.10
2023-02-12T08:04:03.407Z,50.93
2023-02-12T08:06:31.483Z,49.67
2023-02-12T08:08:59.945Z,48.95
2023-02-12T08:11:29.693Z,49.79
2023-02-12T08:13:57.877Z,48.94
2023-02-12T08:16:27.060Z,49.50
2023-02-12T08:19:02.325Z,49.53
2023-02-12T08:21:34.511Z,48.44
2023-02-12T08:24:01.471Z,48.78
2023-02-12T08:26:36.755Z,48.44
2023-02-12T08:29:33.838Z,47.82
2023-02-12T08:32:01.852Z,46.68
2023-02-12T08:34:30.882Z,45.62
2023-02-12T08:36:57.730Z,46.28
2023-02-12T08:39:25.296Z,46.79
2023-02-12T08:41:53.927Z,46.76
2023-02-12T08:44:20.736Z,47.15
2023-02-12T08:46:48.849Z,46.67
2023-02-12T08:49:22.986Z,47.13
2023-02-12T08:51:54.002Z,47.12
2023-02-12T08:54:22.403Z,47.87
2023-02-12T08:56:49.472Z,46.56
2023-02-12T08:59:22.262Z,47.77
2023-02-12T09:01:58.928Z,47.06
2023-02-12T09:04:27.052Z,46.75
2023-02-12T09:06:53.785Z,45.49
2023-02-12T09:09:21.507Z,44.51
2023-02-12T09:11:48.323Z,44.95
2023-02-12T09:14:17.579Z,44.69
2023-02-12T09:16:45.465Z,45.07
2023-02-12T09:19:14.344Z,45.36
2023-02-12T09:21:41.745Z,45.19
2023-02-12T09:24:08.773Z,45.12
2023-02-12T09:26:35.886Z,46.39
2023-02-12T09:29:03.343Z,46.11
2023-02-12T09:31:33.387Z,46.36
2023-02-12T09:34:02.404Z,45.78
2023-02-12T09:36:32.056Z,45.91
2023-02-12T09:38:59.618Z,46.03
2023-02-12T09:41:44.826Z,45.70
2023-02-12T09:44:33.566Z,45.85
2023-02-12T09:47:03.233Z,45.78
2023-02-12T09:50:01.890Z,45.76
2023-02-12T09:52:28.790Z,45.24
2023-02-12T09:54:55.936Z,46.01
2023-02-12T09:57:25.492Z,45.59
2023-02-12T09:59:55.634Z,46.52
2023-02-12T10:02:23.441Z,46.63
2023-02-12T10:05:01.088Z,46.09
2023-02-12T10:07:43.422Z,46.45
2023-02-12T10:10:27.833Z,46.89
2023-02-12T10:13:00.139Z,47.39
2023-02-12T10:15:37.727Z,46.05
2023-02-12T10:18:34.890Z,47.12
2023-02-12T10:21:33.483Z,47.75
2023-02-12T10:24:12.148Z,47.67
2023-02-12T10:26:43.646Z,46.48
2023-02-12T10:29:25.003Z,46.57
2023-02-12T10:32:00.664Z,47.58
2023-02-12T10:34:32.463Z,47.14
2023-02-12T10:37:34.632Z,48.08
2023-02-12T10:40:29.250Z,46.51
2023-02-12T10:42:56.376Z,47.50
2023-02-12T10:45:32.322Z,47.81
2023-02-12T10:48:20.849Z,47.16
2023-02-12T10:50:50.560Z,47.73
2023-02-12T10:53:22.794Z,47.16
2023-02-12T10:56:12.161Z,46.95
2023-02-12T10:58:57.936Z,47.69
2023-02-12T11:01:33.563Z,47.26
2023-02-12T11:04:01.417Z,46.47
2023-02-12T11:06:30.117Z,47.56
2023-02-12T11:08:58.372Z,47.10
2023-02-12T11:11:27.691Z,46.93
2023-02-12T11:14:04.836Z,47.68
2023-02-12T11:16:36.806Z,48.46
2023-02-12T11:19:05.586Z,49.11
2023-02-12T11:21:33.071Z,47.69
2023-02-12T11:24:29.468Z,47.56
2023-02-12T11:27:24.959Z,49.43
2023-02-12T11:30:17.983Z,49.18
2023-02-12T11:32:45.226Z,47.50
2023-02-12T11:35:16.771Z,47.64
2023-02-12T11:37:44.518Z,47.52
2023-02-12T11:40:17.018Z,48.66
2023-02-12T11:42:46.141Z,48.47
2023-02-12T11:45:17.464Z,47.71
2023-02-12T11:47:44.515Z,47.34
2023-02-12T11:50:26.105Z,47.77
2023-02-12T11:52:54.482Z,47.72
2023-02-12T11:55:23.744Z,47.69
2023-02-12T11:58:05.773Z,47.91
2023-02-12T12:00:37.840Z,48.20
2023-02-12T12:03:45.625Z,47.91
2023-02-12T12:06:29.837Z,48.48
2023-02-12T12:09:23.527Z,49.18
2023-02-12T12:12:29.122Z,50.33
2023-02-12T12:15:10.642Z,49.26
2023-02-12T12:17:41.333Z,49.66
2023-02-12T12:20:13.725Z,49.13
2023-02-12T12:23:03.414Z,48.08
2023-02-12T12:25:46.380Z,48.77
2023-02-12T12:28:50.792Z,47.59
2023-02-12T12:31:39.363Z,48.54
2023-02-12T12:34:30.234Z,47.91
2023-02-12T12:37:06.130Z,48.08
2023-02-12T12:39:40.708Z,48.10
2023-02-12T12:42:30.486Z,47.99
2023-02-12T12:45:20.729Z,48.32
2023-02-12T12:48:26.195Z,48.12
2023-02-12T12:51:20.854Z,47.64
2023-02-12T12:53:51.925Z,47.90
2023-02-12T12:56:50.445Z,47.91
2023-02-12T12:59:26.294Z,48.66
2023-02-12T13:01:59.852Z,47.93
2023-02-12T13:04:52.638Z,49.20
2023-02-12T13:07:40.629Z,47.90
2023-02-12T13:10:26.468Z,47.70
2023-02-12T13:13:05.446Z,46.99
2023-02-12T13:16:02.558Z,47.78
2023-02-12T13:18:51.156Z,47.54
2023-02-12T13:21:45.706Z,47.76
2023-02-12T13:24:29.337Z,47.85
2023-02-12T13:26:58.239Z,48.12
2023-02-12T13:29:28.044Z,48.38
2023-02-12T13:32:00.628Z,48.16
2023-02-12T13:34:27.529Z,47.17
2023-02-12T13:36:54.269Z,48.08
2023-02-12T13:39:38.090Z,47.58
2023-02-12T13:42:07.666Z,47.25
2023-02-12T13:44:37.002Z,46.83
2023-02-12T13:47:14.154Z,46.62
2023-02-12T13:50:13.056Z,46.76
2023-02-12T13:53:07.993Z,46.85
2023-02-12T13:56:03.974Z,46.99
2023-02-12T13:58:38.145Z,46.97
2023-02-12T14:01:04.990Z,47.22
2023-02-12T14:03:31.775Z,46.92
2023-02-12T14:06:16.863Z,46.37
2023-02-12T14:09:09.027Z,46.77
2023-02-12T14:11:51.805Z,46.82
2023-02-12T14:14:46.833Z,46.59
2023-02-12T14:18:15.151Z,47.16
2023-02-12T14:20:42.300Z,46.49
2023-02-12T14:23:28.512Z,46.35
2023-02-12T14:26:16.854Z,46.16
2023-02-12T14:29:06.844Z,47.09
2023-02-12T14:31:37.844Z,46.74
2023-02-12T14:34:07.784Z,47.15
2023-02-12T14:36:34.440Z,47.30
2023-02-12T14:39:19.959Z,45.47
2023-02-12T14:41:53.650Z,45.76
2023-02-12T14:44:23.182Z,46.59
2023-02-12T14:46:54.677Z,47.07
2023-02-12T14:49:52.098Z,46.79
2023-02-12T14:52:20.413Z,46.00
2023-02-12T14:54:51.020Z,45.96
2023-02-12T14:57:37.836Z,46.35
2023-02-12T15:00:16.661Z,46.97
2023-02-12T15:02:51.936Z,46.61
2023-02-12T15:05:22.485Z,47.07
2023-02-12T15:07:55.414Z,47.03
2023-02-12T15:10:24.186Z,47.15
2023-02-12T15:12:54.854Z,47.32
2023-02-12T15:15:31.387Z,47.11
2023-02-12T15:18:11.932Z,45.71
2023-02-12T15:20:48.920Z,46.19
2023-02-12T15:23:33.272Z,46.22
2023-02-12T15:26:01.785Z,46.75
2023-02-12T15:28:30.906Z,46.48
2023-02-12T15:30:58.123Z,46.26
2023-02-12T15:33:27.941Z,46.30
2023-02-12T15:35:54.960Z,45.79
2023-02-12T15:38:33.304Z,46.52
2023-02-12T15:41:01.120Z,45.73
2023-02-12T15:43:30.522Z,47.22
2023-02-12T15:45:57.552Z,46.49
2023-02-12T15:48:35.547Z,46.40
2023-02-12T15:51:33.489Z,46.86
2023-02-12T15:54:00.380Z,46.37
2023-02-12T15:56:29.911Z,47.30
2023-02-12T15:59:17.101Z,47.07
2023-02-12T16:02:02.870Z,46.35
2023-02-12T16:04:31.482Z,46.90
2023-02-12T16:06:59.145Z,47.50
2023-02-12T16:09:37.847Z,46.97
2023-02-12T16:12:07.592Z,48.32
2023-02-12T16:14:44.836Z,47.45
2023-02-12T16:17:37.727Z,47.99
2023-02-12T16:20:15.822Z,48.83
2023-02-12T16:22:44.696Z,48.34
2023-02-12T16:25:38.863Z,48.07
2023-02-12T16:28:16.998Z,48.33
2023-02-12T16:30:44.203Z,49.24
2023-02-12T16:36:32.610Z,48.52
2023-02-12T16:39:06.216Z,49.16
2023-02-12T16:41:54.816Z,49.68
2023-02-12T16:44:26.687Z,50.06
2023-02-12T16:46:55.468Z,49.38
2023-02-12T16:49:23.564Z,49.16
2023-02-12T16:51:50.401Z,50.16
2023-02-12T16:54:46.395Z,50.96
2023-02-12T16:57:13.544Z,51.40
2023-02-12T16:59:42.434Z,50.63
2023-02-12T17:02:11.860Z,50.79
2023-02-12T17:04:38.581Z,51.48
2023-02-12T17:07:16.846Z,50.56
2023-02-12T17:09:43.536Z,51.43
2023-02-12T17:12:10.550Z,52.03
2023-02-12T17:14:37.580Z,52.57
2023-02-12T17:17:04.620Z,50.44
2023-02-12T17:19:33.013Z,51.29
2023-02-12T17:21:59.705Z,52.03
2023-02-12T17:24:33.524Z,52.36
2023-02-12T17:27:01.509Z,52.58
2023-02-12T17:29:29.214Z,53.64
2023-02-12T17:31:56.157Z,52.46
2023-02-12T17:34:23.507Z,53.73
2023-02-12T17:36:54.735Z,53.26
2023-02-12T17:39:22.031Z,52.39
2023-02-12T17:41:49.695Z,52.28
2023-02-12T17:44:17.397Z,52.08
2023-02-12T17:46:44.122Z,49.97
2023-02-12T17:49:13.621Z,50.01
2023-02-12T17:51:48.050Z,48.36
2023-02-12T17:54:15.219Z,45.24
2023-02-12T17:56:41.938Z,44.95
2023-02-12T17:59:13.667Z,44.58
2023-02-12T18:01:40.748Z,43.62
2023-02-12T18:04:07.780Z,44.94
2023-02-12T18:06:34.878Z,43.93
2023-02-12T18:09:03.093Z,42.59
2023-02-12T18:11:29.914Z,42.09
2023-02-12T18:13:57.882Z,42.68
2023-02-12T18:16:26.217Z,44.32
2023-02-12T18:18:53.437Z,44.93
2023-02-12T18:21:20.848Z,44.55
2023-02-12T18:23:48.160Z,44.97
2023-02-12T18:26:16.283Z,44.11
2023-02-12T18:28:45.122Z,44.07
2023-02-12T18:31:11.964Z,43.65
2023-02-12T18:33:39.807Z,42.49
2023-02-12T18:36:11.391Z,40.10
2023-02-12T18:38:39.391Z,40.86
2023-02-12T18:41:21.927Z,48.99
2023-02-12T18:43:51.881Z,60.96
2023-02-12T18:46:20.486Z,56.85
2023-02-12T18:48:48.477Z,57.50
2023-02-12T18:51:19.930Z,55.32
2023-02-12T18:53:47.054Z,49.99
2023-02-12T18:56:16.826Z,45.80
2023-02-12T18:58:43.534Z,43.82
2023-02-12T19:01:18.384Z,45.93
2023-02-12T19:03:45.800Z,45.67
2023-02-12T19:06:12.573Z,46.84
2023-02-12T19:08:39.738Z,46.58
2023-02-12T19:11:10.523Z,46.46
2023-02-12T19:13:38.916Z,45.87
2023-02-12T19:16:14.566Z,45.52
2023-02-12T19:18:44.535Z,46.06
2023-02-12T19:21:16.886Z,46.04
2023-02-12T19:23:44.106Z,44.80
2023-02-12T19:26:12.958Z,45.54
2023-02-12T19:28:40.361Z,46.82
2023-02-12T19:31:22.411Z,47.48
2023-02-12T19:33:50.094Z,47.57
2023-02-12T19:36:18.528Z,48.12
2023-02-12T19:38:46.366Z,47.38
2023-02-12T19:41:15.922Z,48.73
2023-02-12T19:43:42.736Z,48.37
2023-02-12T19:46:14.598Z,49.05
2023-02-12T19:48:41.329Z,47.93
2023-02-12T19:51:17.005Z,47.49
2023-02-12T19:53:44.307Z,48.26
2023-02-12T19:56:11.388Z,48.19
2023-02-12T19:58:38.484Z,47.92
2023-02-12T20:01:09.703Z,46.10
2023-02-12T20:03:38.161Z,46.74
2023-02-12T20:06:14.520Z,47.47
2023-02-12T20:08:41.595Z,45.85
2023-02-12T20:11:14.424Z,45.94
2023-02-12T20:13:42.479Z,46.21
2023-02-12T20:16:13.959Z,46.29
2023-02-12T20:18:40.649Z,45.37
2023-02-12T20:21:11.357Z,45.29
2023-02-12T20:23:49.973Z,47.93
2023-02-12T20:26:20.121Z,49.77
2023-02-12T20:28:47.592Z,48.05
2023-02-12T20:31:16.341Z,48.19
2023-02-12T20:33:54.415Z,49.28
2023-02-12T20:36:28.401Z,47.49
2023-02-12T20:39:00.604Z,46.30
2023-02-12T20:41:33.922Z,46.23
2023-02-12T20:44:04.150Z,45.83
2023-02-12T20:46:30.883Z,45.55
2023-02-12T20:48:57.606Z,45.70
2023-02-12T20:51:26.260Z,45.54
2023-02-12T20:53:53.314Z,46.40
2023-02-12T20:56:22.034Z,46.88
2023-02-12T20:58:48.854Z,47.48
2023-02-12T21:01:17.735Z,49.48
2023-02-12T21:03:45.078Z,46.86
2023-02-12T21:06:12.254Z,47.71
2023-02-12T21:08:40.030Z,47.03
2023-02-12T21:11:12.169Z,46.14
2023-02-12T21:13:39.427Z,47.42
2023-02-12T21:16:08.325Z,46.11
2023-02-12T21:18:35.676Z,46.47
2023-02-12T21:21:05.279Z,46.26
2023-02-12T21:23:33.090Z,46.05
2023-02-12T21:26:13.107Z,46.32
2023-02-12T21:28:41.107Z,45.30
2023-02-12T21:31:15.754Z,45.45
2023-02-12T21:33:43.120Z,45.40
2023-02-12T21:36:15.126Z,45.17
2023-02-12T21:38:44.479Z,45.14
2023-02-12T21:41:40.920Z,45.59
2023-02-12T21:44:11.445Z,46.76
2023-02-12T21:46:38.200Z,45.69
2023-02-12T21:49:07.327Z,44.64
2023-02-12T21:51:36.590Z,44.91
2023-02-12T21:54:08.025Z,44.52
2023-02-12T21:56:40.907Z,43.08
2023-02-12T21:59:07.821Z,43.14
2023-02-12T22:01:35.590Z,41.90
2023-02-12T22:04:03.876Z,43.48
2023-02-12T22:06:30.707Z,42.68
2023-02-12T22:09:04.602Z,43.74
2023-02-12T22:11:31.686Z,42.77
2023-02-12T22:13:58.764Z,43.40
2023-02-12T22:16:28.445Z,43.20
2023-02-12T22:18:56.836Z,43.26
2023-02-12T22:21:24.140Z,44.54
2023-02-12T22:23:52.926Z,45.31
2023-02-12T22:26:24.232Z,46.77
2023-02-12T22:28:56.043Z,46.14
2023-02-12T22:31:28.206Z,44.20
2023-02-12T22:33:57.855Z,44.44
2023-02-12T22:36:24.695Z,44.34
2023-02-12T22:38:52.595Z,45.58
2023-02-12T22:41:19.471Z,45.17
2023-02-12T22:43:47.562Z,46.18
2023-02-12T22:46:14.494Z,47.08
2023-02-12T22:48:42.273Z,46.43
2023-02-12T22:51:31.307Z,47.03
2023-02-12T22:53:58.341Z,47.66
2023-02-12T22:56:25.505Z,47.85
2023-02-12T22:58:59.691Z,46.68
2023-02-12T23:03:53.796Z,46.20
2023-02-12T23:06:22.454Z,46.84
2023-02-12T23:08:56.626Z,47.15
2023-02-12T23:11:26.660Z,47.70
2023-02-12T23:13:53.910Z,46.73
2023-02-12T23:16:21.062Z,48.46
2023-02-12T23:18:48.142Z,47.74
2023-02-12T23:21:15.123Z,46.85
2023-02-12T23:23:41.898Z,47.38
2023-02-12T23:26:14.156Z,47.24
2023-02-12T23:28:41.956Z,47.57
2023-02-12T23:31:09.145Z,47.88
2023-02-12T23:33:38.775Z,48.56
2023-02-12T23:36:06.728Z,48.34
2023-02-12T23:38:33.474Z,48.28
2023-02-12T23:41:00.492Z,48.53
2023-02-12T23:43:28.573Z,48.51
2023-02-12T23:45:55.613Z,49.31
2023-02-12T23:48:22.402Z,48.25
2023-02-12T23:50:50.028Z,48.28
2023-02-12T23:53:16.989Z,49.61
2023-02-12T23:55:43.755Z,48.79
2023-02-12T23:58:10.746Z,48.84
